Charly Bouteiller

Charly Bouteiller

Statistiques 2021

  • Courses courues : 65
  • Nb de victoires : 5
  • Nb de places : 14
  • Écart gagnant : 26
  • Réussite à la gagne : 8%
  • Réussite à la place : 22%
Musique : Dm 5m 8a 5a 7m Da Dm 3a 0a 2m 7a Dm 6a 2m Dm 4m 4m 0a
DateRangCatégorieAlloc.Dist.HippodromeChevalRed. KmSpé.
14/10/21 D Trot 31 000€ 3 000m Marseille Borely Ermine d'Ebane Monté
08/10/21 5 Trot 26 000€ 2 850m Hyeres Daumesnil 1'16"9 Monté
07/10/21 8 Trot 17 000€ 2 300m Marseille Borely Houston Sissi 1'14"7 Attelé
30/09/21 5 Trot 38 000€ 2 150m Enghien Soisy Emir du Pressoir 1'13"5 Attelé lire

Après avoir attendu, a terminé fort honorablement.

30/09/21 7 Trot 44 000€ 2 875m Enghien Soisy Ermes de Corday 1'14"7 Monté lire

Un des animateurs, a nettement marqué le pas pour finir.

28/09/21 D Trot 17 000€ 2 300m Marseille Borely Domino d'Auvrecy Attelé
20/09/21 D Trot 23 000€ 2 600m Cavaillon Erkis Delarouge Monté
20/09/21 3 Trot 21 000€ 2 525m Cavaillon Frilouz de Kernas 1'15"3 Attelé
16/09/21 0 Trot 14 000€ 3 000m Marseille Borely Flou Artistique Attelé
16/09/21 2 Trot 15 000€ 2 400m Marseille Borely Grace de Rebecq 1'15"0 Monté
09/09/21 7 Trot 26 000€ 2 300m Marseille Borely Cagnoise d'Agon 1'13"1 Attelé
02/09/21 D Trot 22 000€ 3 025m Marseille Borely Going Jet Monté
27/08/21 6 Trot 30 000€ 2 700m Cagnes Sur Mer Cagnoise d'Agon 1'14"6 Attelé
20/08/21 2 Trot 22 000€ 2 925m Cagnes Sur Mer Grace de Rebecq 1'16"1 Monté
08/08/21 D Trot 14 000€ 2 725m Aix Les Bains Grace de Rebecq Monté
28/07/21 4 Trot 29 000€ 2 925m Cagnes Sur Mer Cool Haufor 1'17"3 Monté
25/07/21 4 Trot 23 000€ 2 850m Hyeres Dratar Blond 1'16"9 Monté
25/07/21 0 Trot 21 000€ 2 850m Hyeres Escroc de Villabon Attelé
18/07/21 D Trot 17 000€ 2 850m Hyeres Grace de Rebecq Monté
12/07/21 4 Trot 23 000€ 2 850m Hyeres Dratar Blond 1'17"8 Monté
07/07/21 3 Trot 23 000€ 2 875m Hyeres Dratar Blond 1'16"2 Monté
07/07/21 4 Trot 21 000€ 2 650m Hyeres Frilouz de Kernas 1'15"3 Attelé
04/07/21 6 Trot 19 000€ 2 650m Saint Galmier Escroc de Villabon 1'17"6 Monté
02/07/21 2 Trot 80 000€ 2 200m Vincennes Brillant Madrik 1'12"9 Monté lire

Après avoir évolué en queue de peloton, a progressé dans le tournant final, soutenant bien son effort jusqu'à la fin.

26/06/21 5 Trot 19 000€ 2 650m Marseille Vivaux Ebene de Jay 1'15"8 Monté
22/06/21 1 Trot 44 000€ 2 850m Vincennes Dancer For Money 1'13"8 Monté lire

Principal animateur, a su se montrer le plus fort dans la phase finale.

21/06/21 D Trot 17 000€ 2 975m Vichy Grace de Rebecq Monté
20/06/21 D Trot 16 000€ 2 825m Bollene Fille de Kerdu Monté
06/06/21 5 Trot 18 000€ 2 875m Lyon Parilly Forjan 1'16"2 Attelé
06/06/21 5 Trot 10 000€ 2 850m Lyon Parilly Defi The Best 1'16"3 Attelé
06/06/21 1 Trot 15 000€ 2 850m Lyon Parilly Grace de Rebecq 1'17"0 Monté
04/06/21 4 Trot 23 000€ 2 300m Marseille Borely Firejack de Viette 1'13"1 Attelé
04/06/21 D Trot 31 000€ 3 000m Marseille Borely Cagnoise d'Agon Monté
30/05/21 D Trot 17 000€ 2 525m Cavaillon General Attelé
30/05/21 D Trot 23 000€ 2 600m Cavaillon Estoy Aqui Monté
27/05/21 1 Trot 20 000€ 3 025m Marseille Borely Firejack de Viette 1'16"2 Attelé
27/05/21 D Trot 22 000€ 3 000m Marseille Borely Fleche Monté
20/05/21 4 Trot 31 000€ 2 400m Marseille Borely Cagnoise d'Agon 1'13"5 Monté
11/05/21 6 Trot 24 000€ 3 025m Marseille Borely El Viento 1'14"7 Monté
08/05/21 5 Trot 16 000€ 2 650m Oraison Fakir Gis 1'22"3 Monté
21/04/21 3 Trot 30 000€ 2 800m Pontchateau Ermes de Corday 1'14"6 Monté lire

Longtemps au sein du peloton, a terminé de bonne manière.

05/04/21 1 Trot 13 000€ 2 550m Beaumont De Lomagne Hora de la Motte 1'20"1 Monté
04/04/21 7 Trot 17 000€ 2 575m Beaumont De Lomagne Fuego de Ligny 1'18"5 Monté
30/03/21 8 Trot 52 000€ 2 250m Enghien Soisy Akir de Mai 1'13"8 Monté lire

N'a été qu'un simple figurant au sein du peloton.

28/03/21 8 Trot 22 000€ 2 625m Agen Equido Alfa 1'15"8 Monté
25/03/21 2 Trot 20 000€ 2 650m Agen Ermes de Corday 1'14"7 Monté
21/03/21 3 Trot 10 000€ 2 625m Agen Gasby du Fer 1'18"2 Attelé
14/03/21 1 Trot 16 000€ 2 825m Auch Espion Cehere 1'17"2 Attelé
24/02/21 5 Trot 21 000€ 2 150m Toulouse Fly To The Moon 1'15"8 Attelé
20/02/21 0 Trot 24 000€ 2 625m Agen Ermes de Corday Monté